Time;durP1;ratioP1;P1;durP2;ratioP2;P2;SDS_P1;SDS_P2;PMS_P1;PMS_P2;Temp;Humidity;BMP_temperature;BMP_pressure;BME280_temperature;BME280_humidity;BME280_pressure;Samples;Min_cycle;Max_cycle;Signal;HPM_P1;HPM_P2
2021/03/27 00:01:01;;;;;;;74.42;41.48;;;;;;;7.38;67.22;100630.60;1760474;81;21227;-74
2021/03/27 00:03:51;;;;;;;81.00;42.10;;;;;;;7.40;67.23;100627.30;1762368;81;21053;-75
2021/03/27 00:06:21;;;;;;;80.35;41.30;;;;;;;7.46;67.20;100614.78;1754775;81;21144;-75
2021/03/27 00:08:59;;;;;;;79.55;40.03;;;;;;;7.48;67.16;100608.86;1731542;82;21234;-74
2021/03/27 00:11:46;;;;;;;77.60;40.83;;;;;;;7.48;67.16;100608.86;1718396;82;21566;-75
2021/03/27 00:14:19;;;;;;;76.75;42.23;;;;;;;7.52;67.12;100611.56;1746633;82;21285;-74
2021/03/27 00:17:01;;;;;;;79.17;41.23;;;;;;;7.56;67.12;100604.64;1731456;82;21621;-75
2021/03/27 00:19:37;;;;;;;78.62;40.88;;;;;;;7.54;67.09;100604.28;1756904;81;21172;-75
2021/03/27 00:22:18;;;;;;;78.52;40.00;;;;;;;7.56;67.08;100602.83;1757457;81;21172;-76
2021/03/27 00:25:10;;;;;;;76.50;39.10;;;;;;;7.59;67.08;100599.87;1757985;81;21212;-75
2021/03/27 00:28:08;;;;;;;76.72;40.08;;;;;;;7.60;67.06;100595.41;1758105;81;21197;-74
2021/03/27 00:31:00;;;;;;;82.90;41.92;;;;;;;7.59;67.02;100583.11;1758267;81;21169;-74
2021/03/27 00:33:33;;;;;;;68.97;39.15;;;;;;;7.57;67.03;100583.24;1758539;81;21128;-74
2021/03/27 00:36:25;;;;;;;76.57;40.48;;;;;;;7.57;67.01;100582.41;1755987;81;21636;-75
2021/03/27 00:39:05;;;;;;;75.22;40.00;;;;;;;7.54;67.02;100589.69;1732081;82;21157;-75
2021/03/27 00:41:40;;;;;;;;;;;;;;;7.48;67.00;100586.30;1711601;83;21640;-75
2021/03/27 00:44:11;;;;;;;78.47;40.98;;;;;;;7.47;67.00;100583.29;1702927;84;20260;-76
2021/03/27 00:46:37;;;;;;;;;;;;;;;7.47;66.95;100577.98;1651860;84;21187;-75
2021/03/27 00:49:16;;;;;;;73.83;38.85;;;;;;;7.46;66.93;100578.95;1700924;84;20256;-75
2021/03/27 00:51:50;;;;;;;78.42;41.08;;;;;;;7.44;66.93;100568.16;1702882;84;21612;-75
2021/03/27 00:54:22;;;;;;;72.78;40.10;;;;;;;7.42;66.91;100577.57;1700651;84;21211;-75
2021/03/27 00:57:08;;;;;;;77.53;40.67;;;;;;;7.40;66.90;100570.27;1702265;84;21644;-74
2021/03/27 00:59:37;;;;;;;67.47;37.50;;;;;;;7.38;66.89;100564.77;1702458;84;21645;-74
2021/03/27 01:02:08;;;;;;;73.12;38.45;;;;;;;7.35;66.88;100559.23;1682165;84;21787;-74
2021/03/27 01:04:35;;;;;;;73.05;37.90;;;;;;;7.34;66.86;100558.91;1705636;84;21605;-74
2021/03/27 01:07:11;;;;;;;73.45;38.15;;;;;;;7.34;66.88;100550.11;1702563;84;22174;-75
2021/03/27 01:09:46;;;;;;;70.35;36.90;;;;;;;7.34;66.88;100552.77;1700348;84;21155;-74
2021/03/27 01:12:21;;;;;;;76.55;38.73;;;;;;;7.31;66.90;100548.59;1702377;84;21219;-74
2021/03/27 01:15:03;;;;;;;72.00;41.87;;;;;;;7.35;66.92;100541.99;1836699;77;30851;-75
2021/03/27 01:17:32;;;;;;;76.55;40.98;;;;;;;7.37;66.93;100542.70;1824628;78;21138;-75
2021/03/27 01:20:03;;;;;;;75.80;39.18;;;;;;;7.36;66.99;100533.06;1792506;78;21129;-75
2021/03/27 01:22:29;;;;;;;67.00;38.00;;;;;;;7.35;67.00;100534.03;1824556;78;21199;-75
2021/03/27 01:24:58;;;;;;;73.15;38.17;;;;;;;7.35;67.01;100534.55;1792820;78;21099;-75
2021/03/27 01:27:33;;;;;;;72.90;39.13;;;;;;;7.35;67.03;100524.75;1823918;78;21569;-75
2021/03/27 01:30:16;;;;;;;74.22;40.80;;;;;;;7.34;67.03;100512.97;1789619;78;21095;-75
2021/03/27 01:32:57;;;;;;;76.40;39.30;;;;;;;7.33;67.02;100509.48;1824392;78;21182;-74
2021/03/27 01:35:31;;;;;;;78.45;39.03;;;;;;;7.31;67.04;100515.44;1824552;77;21183;-75
2021/03/27 01:38:41;;;;;;;71.80;37.80;;;;;;;7.33;67.03;100516.11;1795771;78;21111;-75
2021/03/27 01:41:27;;;;;;;70.17;37.13;;;;;;;7.33;67.01;100511.30;1792010;80;21118;-75
2021/03/27 01:44:14;;;;;;;70.60;37.05;;;;;;;7.28;67.02;100508.27;1792245;80;21107;-75
2021/03/27 01:46:54;;;;;;;70.20;36.90;;;;;;;7.30;67.01;100509.78;1792212;80;21272;-75
2021/03/27 01:49:47;;;;;;;62.53;35.28;;;;;;;7.32;67.01;100501.66;1792227;80;21107;-75
2021/03/27 01:52:35;;;;;;;66.42;33.58;;;;;;;7.35;67.01;100499.55;1792244;80;21127;-75
2021/03/27 01:55:41;;;;;;;66.90;34.45;;;;;;;7.34;67.02;100499.22;1792077;80;21170;-74
2021/03/27 01:58:31;;;;;;;65.42;35.30;;;;;;;7.32;67.04;100498.52;1792240;80;21546;-75
2021/03/27 02:01:08;;;;;;;63.63;36.03;;;;;;;7.31;67.05;100490.23;1792473;80;21920;-75
2021/03/27 02:04:01;;;;;;;69.47;36.73;;;;;;;7.30;67.07;100490.37;1791956;80;21119;-75
2021/03/27 02:06:54;;;;;;;68.57;34.95;;;;;;;7.28;67.08;100487.84;1792055;80;21566;-77
2021/03/27 02:09:52;;;;;;;68.83;34.43;;;;;;;7.25;67.08;100485.49;1792285;80;21147;-75
2021/03/27 02:12:57;;;;;;;69.20;35.92;;;;;;;7.21;67.11;100486.80;1791860;80;21552;-75
2021/03/27 02:15:48;;;;;;;63.10;35.10;;;;;;;7.16;67.13;100489.04;1791893;80;21196;-74
2021/03/27 02:18:26;;;;;;;59.60;35.05;;;;;;;7.12;67.13;100482.34;1792003;80;21080;-74
2021/03/27 02:21:20;;;;;;;68.35;35.75;;;;;;;7.10;67.16;100481.67;1791933;80;21166;-74
2021/03/27 02:24:35;;;;;;;72.22;34.78;;;;;;;7.07;67.16;100479.31;1792195;80;21110;-74
2021/03/27 02:27:07;;;;;;;71.42;35.28;;;;;;;7.05;67.17;100478.61;1790824;80;21194;-74
2021/03/27 02:30:07;;;;;;;64.90;34.20;;;;;;;7.07;67.20;100472.69;1791058;80;22055;-74
2021/03/27 02:33:09;;;;;;;73.90;37.25;;;;;;;7.08;67.22;100476.14;1791333;80;21130;-74
2021/03/27 02:35:58;;;;;;;60.88;33.78;;;;;;;7.05;67.25;100470.66;1791561;80;21575;-74
2021/03/27 02:38:30;;;;;;;65.40;33.83;;;;;;;7.02;67.28;100470.95;1791214;80;21860;-74
2021/03/27 02:41:14;;;;;;;62.00;32.45;;;;;;;7.01;67.30;100467.94;1791543;80;21556;-74
2021/03/27 02:43:44;;;;;;;69.10;34.67;;;;;;;6.98;67.35;100467.75;1791657;80;21229;-74
2021/03/27 02:46:15;;;;;;;61.70;33.30;;;;;;;6.96;67.37;100462.27;1791275;80;21139;-74
2021/03/27 02:49:30;;;;;;;61.40;32.25;;;;;;;6.95;67.41;100457.92;1761825;80;21174;-74
2021/03/27 02:52:05;;;;;;;63.55;34.40;;;;;;;6.96;67.45;100466.23;1791471;80;21540;-74
2021/03/27 02:55:12;;;;;;;63.17;33.50;;;;;;;6.95;67.49;100464.07;1791292;80;21126;-74
2021/03/27 02:58:07;;;;;;;66.53;32.63;;;;;;;6.92;67.52;100464.36;1789720;80;22082;-74
2021/03/27 03:00:44;;;;;;;64.70;33.75;;;;;;;6.90;67.56;100467.63;1786002;80;21127;-74
2021/03/27 03:03:19;;;;;;;60.80;33.15;;;;;;;6.89;67.58;100459.84;1791237;80;21131;-74
2021/03/27 03:06:12;;;;;;;62.08;32.33;;;;;;;6.87;67.60;100459.13;1791603;80;21115;-74
2021/03/27 03:08:43;;;;;;;61.63;32.33;;;;;;;6.86;67.61;100458.30;1791286;80;21096;-74
2021/03/27 03:11:14;;;;;;;65.85;33.67;;;;;;;6.83;67.61;100458.59;1761575;80;21277;-74
2021/03/27 03:13:51;;;;;;;55.88;31.15;;;;;;;6.84;67.65;100451.48;1791249;80;21119;-74
2021/03/27 03:16:25;;;;;;;66.65;31.82;;;;;;;6.84;67.66;100448.34;1791247;80;21127;-74
2021/03/27 03:19:11;;;;;;;59.70;31.30;;;;;;;6.86;67.65;100449.53;1761828;80;21211;-74
2021/03/27 03:21:56;;;;;;;55.23;29.00;;;;;;;6.88;67.68;100443.58;1791305;79;21138;-74
2021/03/27 03:24:50;;;;;;;65.25;32.40;;;;;;;6.90;67.71;100447.75;1791441;80;21261;-74
2021/03/27 03:27:53;;;;;;;56.77;29.75;;;;;;;6.91;67.71;100444.61;1791472;80;21143;-74
2021/03/27 03:30:57;;;;;;;53.50;28.98;;;;;;;6.90;67.75;100437.63;1791341;80;21139;-74
2021/03/27 03:33:44;;;;;;;61.23;29.15;;;;;;;6.88;67.75;100436.95;1791391;80;21146;-74
2021/03/27 03:36:31;;;;;;;53.95;28.17;;;;;;;6.85;67.76;100437.25;1790704;78;21611;-75
2021/03/27 03:39:34;;;;;;;59.40;30.35;;;;;;;6.85;67.79;100431.95;1791300;79;22032;-75
2021/03/27 03:42:39;;;;;;;54.03;28.00;;;;;;;6.84;67.79;100432.92;1791285;80;21155;-75
2021/03/27 03:45:17;;;;;;;56.00;30.57;;;;;;;6.85;67.78;100427.97;1791444;80;21162;-75
2021/03/27 03:51:13;;;;;;;55.17;27.93;;;;;;;6.85;67.78;100417.38;1823927;77;21111;-75
2021/03/27 03:54:22;;;;;;;57.33;29.87;;;;;;;6.85;67.77;100420.86;1822925;78;21203;-75
2021/03/27 03:57:11;;;;;;;53.55;29.92;;;;;;;6.82;67.77;100417.67;1823766;78;21104;-75
2021/03/27 04:00:01;;;;;;;56.42;30.05;;;;;;;6.78;67.77;100408.33;1824104;78;21088;-75
2021/03/27 04:02:57;;;;;;;59.23;29.37;;;;;;;6.78;67.76;100412.30;1824148;78;21548;-75
2021/03/27 04:05:40;;;;;;;55.20;28.80;;;;;;;6.75;67.75;100407.30;1823796;78;21435;-75
2021/03/27 04:08:44;;;;;;;53.00;27.55;;;;;;;6.72;67.75;100407.59;1823874;77;22065;-75
2021/03/27 04:11:25;;;;;;;46.53;25.37;;;;;;;6.70;67.78;100406.89;1823934;78;21122;-75
2021/03/27 04:13:52;;;;;;;52.38;26.17;;;;;;;6.70;67.77;100406.89;1780144;77;21147;-75
2021/03/27 04:16:21;;;;;;;50.33;26.62;;;;;;;6.69;67.80;100415.80;1823753;78;21140;-75
2021/03/27 04:19:03;;;;;;;54.15;24.85;;;;;;;6.69;67.81;100410.51;1792440;78;21115;-75
2021/03/27 04:21:39;;;;;;;57.50;26.90;;;;;;;6.69;67.82;100406.53;1792150;78;21250;-75
2021/03/27 04:24:14;;;;;;;52.53;24.32;;;;;;;6.72;67.83;100418.20;1824010;78;21135;-75
2021/03/27 04:26:52;;;;;;;48.30;26.30;;;;;;;6.71;67.84;100396.16;1822999;78;21151;-75
2021/03/27 04:29:43;;;;;;;60.10;28.38;;;;;;;6.71;67.86;100400.62;1823946;78;21115;-75
2021/03/27 04:32:22;;;;;;;56.25;25.72;;;;;;;6.70;67.87;100396.29;1793799;78;21127;-75
2021/03/27 04:35:05;;;;;;;53.55;26.75;;;;;;;6.70;67.87;100397.61;1791963;78;21557;-75
2021/03/27 04:38:10;;;;;;;56.02;26.00;;;;;;;6.70;67.87;100402.91;1846277;77;21152;-75
2021/03/27 04:40:47;;;;;;;51.13;27.50;;;;;;;6.69;67.86;100403.39;1825129;77;21155;-75
2021/03/27 04:43:40;;;;;;;50.05;26.62;;;;;;;6.70;67.86;100394.96;1822504;77;21537;-75
2021/03/27 04:46:17;;;;;;;49.95;24.50;;;;;;;6.70;67.83;100393.64;1857607;77;21601;-75
2021/03/27 04:49:14;;;;;;;52.70;26.45;;;;;;;6.68;67.84;100390.31;1699203;80;21530;-75
2021/03/27 04:52:07;;;;;;;47.73;25.97;;;;;;;6.68;67.83;100391.16;1777096;80;21136;-75
2021/03/27 04:54:57;;;;;;;50.43;25.68;;;;;;;6.73;67.83;100385.39;1787595;80;21144;-75
2021/03/27 04:57:45;;;;;;;;;;;;;;;6.75;67.82;100378.15;1790158;80;21153;-75
2021/03/27 05:00:36;;;;;;;48.17;25.05;;;;;;;6.80;67.82;100383.83;1818956;78;20272;-75
2021/03/27 05:03:30;;;;;;;48.80;25.12;;;;;;;6.87;67.82;100383.59;1787619;80;22166;-75
2021/03/27 05:06:04;;;;;;;51.83;24.87;;;;;;;6.94;67.76;100385.52;1819725;78;21578;-75
2021/03/27 05:09:00;;;;;;;49.95;24.82;;;;;;;7.04;67.77;100378.83;1787380;80;21175;-75
2021/03/27 05:11:56;;;;;;;47.35;24.75;;;;;;;7.15;67.72;100378.63;1820022;78;21184;-75
2021/03/27 05:14:28;;;;;;;47.08;24.12;;;;;;;7.44;67.71;100381.94;1787575;80;21120;-76
2021/03/27 05:17:25;;;;;;;48.87;24.47;;;;;;;7.80;67.59;100379.30;1819238;78;21199;-75
2021/03/27 05:20:18;;;;;;;48.30;24.35;;;;;;;7.96;67.42;100376.77;1787693;80;21195;-76
2021/03/27 05:23:16;;;;;;;45.75;24.75;;;;;;;8.16;67.28;100373.45;1819832;78;21147;-76
2021/03/27 05:26:09;;;;;;;52.27;26.25;;;;;;;8.36;67.05;100376.28;1787605;80;21155;-76
2021/03/27 05:28:44;;;;;;;44.00;23.57;;;;;;;8.41;66.73;100373.97;1758081;80;21156;-76
2021/03/27 05:31:27;;;;;;;48.48;25.37;;;;;;;8.19;66.56;100371.32;1819240;78;21265;-75
2021/03/27 05:34:25;;;;;;;48.87;23.65;;;;;;;8.10;66.48;100370.91;1756984;80;21565;-75
2021/03/27 05:37:20;;;;;;;49.88;24.55;;;;;;;8.12;66.45;100364.12;1819745;78;21176;-76
2021/03/27 05:40:26;;;;;;;44.98;23.20;;;;;;;8.36;66.30;100373.62;1787413;80;21132;-74
2021/03/27 05:43:27;;;;;;;46.02;23.98;;;;;;;8.15;66.10;100368.63;1709970;83;21172;-74
2021/03/27 05:46:38;;;;;;;45.33;24.12;;;;;;;8.60;66.00;100370.27;1857383;77;22070;-74
2021/03/27 05:49:38;;;;;;;46.33;25.02;;;;;;;8.77;65.47;100372.02;1857285;77;21143;-76
2021/03/27 05:52:41;;;;;;;55.65;27.00;;;;;;;8.78;65.35;100376.34;1857341;77;21092;-76
2021/03/27 05:55:34;;;;;;;49.53;24.57;;;;;;;8.86;65.36;100376.39;1786458;80;21207;-76
2021/03/27 05:58:12;;;;;;;43.75;24.15;;;;;;;9.03;65.29;100375.47;1819805;78;21692;-74
2021/03/27 06:01:24;;;;;;;55.38;26.25;;;;;;;9.11;65.23;100367.52;1787396;80;22150;-74
2021/03/27 06:04:16;;;;;;;45.70;24.27;;;;;;;9.14;65.14;100368.52;1819779;78;21148;-74
2021/03/27 06:07:08;;;;;;;43.10;25.50;;;;;;;9.12;64.97;100367.83;1785569;80;21585;-74
2021/03/27 06:09:51;;;;;;;40.20;23.52;;;;;;;9.35;64.82;100369.41;1786090;80;21108;-76
2021/03/27 06:12:31;;;;;;;45.83;24.07;;;;;;;9.60;64.60;100367.63;1787781;80;21178;-74
2021/03/27 06:15:09;;;;;;;46.88;24.87;;;;;;;9.80;64.38;100362.31;1745704;82;21206;-74
2021/03/27 06:18:03;;;;;;;45.15;23.42;;;;;;;9.95;64.23;100370.83;1768614;81;21582;-74
2021/03/27 06:20:51;;;;;;;48.28;24.43;;;;;;;9.97;64.04;100362.65;1785465;79;21595;-74
2021/03/27 06:23:41;;;;;;;44.25;22.77;;;;;;;9.81;63.86;100361.33;1753420;81;21136;-75
2021/03/27 06:26:37;;;;;;;46.73;24.90;;;;;;;9.63;63.74;100360.15;1767524;81;27237;-75
2021/03/27 06:29:54;;;;;;;46.48;23.12;;;;;;;9.58;63.64;100354.97;1688219;83;21227;-74
2021/03/27 06:33:02;;;;;;;45.10;22.77;;;;;;;9.65;63.51;100346.66;1742994;82;21597;-74
2021/03/27 06:35:54;;;;;;;49.77;25.48;;;;;;;9.54;63.39;100353.13;1826847;77;21136;-75
2021/03/27 06:38:59;;;;;;;45.60;24.27;;;;;;;9.65;63.27;100351.98;1829241;77;21155;-75
2021/03/27 06:41:48;;;;;;;44.45;23.25;;;;;;;9.85;63.16;100342.69;1824148;77;21141;-75
2021/03/27 06:44:51;;;;;;;40.65;22.42;;;;;;;10.06;63.02;100336.36;1823614;78;22050;-75
2021/03/27 06:47:50;;;;;;;43.73;21.85;;;;;;;10.41;62.88;100337.30;1823988;77;21124;-77
2021/03/27 06:50:54;;;;;;;44.27;22.55;;;;;;;10.78;62.71;100337.20;1823507;77;21576;-75
2021/03/27 06:54:05;;;;;;;39.95;21.57;;;;;;;11.05;62.54;100338.06;1822533;78;21127;-75
2021/03/27 06:56:42;;;;;;;40.67;22.52;;;;;;;11.05;62.32;100335.39;1820420;78;21147;-75
2021/03/27 06:59:17;;;;;;;44.55;23.15;;;;;;;11.27;62.16;100337.28;1795255;78;22113;-75
2021/03/27 07:02:05;;;;;;;39.55;20.45;;;;;;;11.37;61.88;100333.05;1792447;78;21155;-75
2021/03/27 07:05:10;;;;;;;39.55;20.60;;;;;;;11.63;61.66;100339.39;1768116;80;21640;-75
2021/03/27 07:08:20;;;;;;;39.73;21.37;;;;;;;11.74;61.43;100351.03;1741861;80;21184;-75
2021/03/27 07:11:35;;;;;;;44.90;22.00;;;;;;;11.66;61.18;100341.20;1765339;80;21568;-74
2021/03/27 07:14:27;;;;;;;45.15;25.70;;;;;;;11.58;61.04;100339.08;1779481;79;22137;-76
2021/03/27 07:17:23;;;;;;;47.95;27.27;;;;;;;11.43;60.84;100353.73;1790723;78;21192;-76
2021/03/27 07:19:58;;;;;;;45.88;26.65;;;;;;;11.32;60.71;100354.95;1788977;78;21604;-76
2021/03/27 07:22:33;;;;;;;35.05;19.70;;;;;;;11.27;60.59;100351.97;1786324;78;21558;-76
2021/03/27 07:25:19;;;;;;;42.17;23.80;;;;;;;11.25;60.52;100364.67;1779388;78;21195;-77
2021/03/27 07:28:26;;;;;;;61.18;35.50;;;;;;;11.20;60.38;100363.02;1773455;79;22100;-75
2021/03/27 07:31:03;;;;;;;91.40;45.52;;;;;;;11.16;60.26;100368.38;1776823;80;21196;-76
2021/03/27 07:33:57;;;;;;;68.92;33.55;;;;;;;11.14;60.19;100359.72;1758637;81;21192;-75
2021/03/27 07:37:07;;;;;;;54.58;27.42;;;;;;;11.14;60.08;100365.06;1740737;80;21633;-75
2021/03/27 07:39:48;;;;;;;42.30;23.22;;;;;;;11.20;59.97;100361.69;1787550;80;21227;-75
2021/03/27 07:42:31;;;;;;;44.00;20.92;;;;;;;11.28;59.90;100362.98;1783359;80;22143;-75
2021/03/27 07:45:14;;;;;;;37.15;21.07;;;;;;;11.34;59.81;100360.11;1776159;79;21195;-75
2021/03/27 07:47:57;;;;;;;39.95;20.68;;;;;;;11.39;59.78;100354.58;1789028;80;21254;-75
2021/03/27 07:50:49;;;;;;;34.13;20.48;;;;;;;11.44;59.72;100352.20;1757479;80;21205;-75
2021/03/27 07:54:04;;;;;;;40.10;21.40;;;;;;;11.51;59.65;100357.16;1759320;80;21588;-75
2021/03/27 07:56:41;;;;;;;32.63;20.48;;;;;;;11.60;59.51;100354.45;1755368;80;21219;-74
2021/03/27 07:59:43;;;;;;;33.50;19.23;;;;;;;11.70;59.39;100357.70;1791344;79;22376;-75
2021/03/27 08:02:56;;;;;;;33.80;19.80;;;;;;;12.10;59.27;100368.12;1726645;83;21227;-75
2021/03/27 08:05:37;;;;;;;36.45;19.32;;;;;;;12.40;58.99;100364.98;1727122;83;21183;-75
2021/03/27 08:08:41;;;;;;;34.83;17.77;;;;;;;12.80;58.83;100376.60;1782203;80;21120;-75
2021/03/27 08:11:18;;;;;;;29.98;17.27;;;;;;;13.05;58.28;100373.13;1791503;80;21582;-75
2021/03/27 08:14:14;;;;;;;29.35;16.30;;;;;;;13.42;57.95;100379.69;1792472;78;21148;-76
2021/03/27 08:16:48;;;;;;;30.82;16.77;;;;;;;13.69;57.50;100371.91;1760561;81;21167;-76
2021/03/27 08:19:34;;;;;;;38.08;20.37;;;;;;;13.77;57.02;100370.45;1792417;80;21120;-77
2021/03/27 08:22:21;;;;;;;34.03;16.77;;;;;;;13.88;56.59;100365.42;1760755;81;21151;-77
2021/03/27 08:24:59;;;;;;;29.80;16.15;;;;;;;14.03;56.16;100376.08;1790215;79;22052;-76
2021/03/27 08:27:39;;;;;;;24.77;14.73;;;;;;;14.27;55.71;100371.64;1774171;79;21133;-76
2021/03/27 08:30:53;;;;;;;29.67;15.85;;;;;;;14.70;55.26;100370.22;1760834;81;22251;-76
2021/03/27 08:33:47;;;;;;;27.90;14.33;;;;;;;14.88;54.73;100372.69;1763479;80;21152;-76
2021/03/27 08:36:24;;;;;;;22.77;13.93;;;;;;;14.80;54.43;100372.87;1791461;80;21290;-76
2021/03/27 08:39:26;;;;;;;25.70;16.00;;;;;;;14.92;54.17;100374.46;1762872;80;21245;-76
2021/03/27 08:42:30;;;;;;;28.87;14.65;;;;;;;15.18;53.69;100373.77;1781706;80;21184;-76
2021/03/27 08:45:46;;;;;;;25.37;14.53;;;;;;;15.27;53.17;100366.67;1778745;80;21577;-76
2021/03/27 08:48:32;;;;;;;24.00;13.70;;;;;;;15.13;52.87;100372.22;1734663;79;21100;-76
2021/03/27 08:54:38;;;;;;;23.85;14.13;;;;;;;15.09;52.59;100373.13;1703677;84;21171;-76
2021/03/27 08:57:35;;;;;;;25.08;12.78;;;;;;;15.14;52.39;100377.37;1699949;82;21214;-76
2021/03/27 09:00:28;;;;;;;21.07;12.47;;;;;;;15.31;52.13;100377.33;1689518;83;21211;-77
2021/03/27 09:03:25;;;;;;;20.85;11.12;;;;;;;15.41;52.06;100376.44;1690724;84;21232;-77
2021/03/27 09:06:19;;;;;;;21.10;11.33;;;;;;;15.47;51.85;100379.69;1678138;84;21212;-76
2021/03/27 09:09:34;;;;;;;22.65;11.65;;;;;;;15.57;51.49;100383.86;1710708;82;22090;-76
2021/03/27 09:12:39;;;;;;;18.62;11.33;;;;;;;15.51;50.89;100383.34;1709991;83;21179;-76
2021/03/27 09:15:28;;;;;;;20.70;11.50;;;;;;;15.38;50.57;100386.25;1709606;83;21223;-76
2021/03/27 09:18:37;;;;;;;20.00;12.25;;;;;;;15.33;50.60;100396.79;1691140;83;21204;-76
2021/03/27 09:21:32;;;;;;;22.00;11.45;;;;;;;15.35;50.38;100390.69;1703576;82;21164;-77
2021/03/27 09:24:53;;;;;;;27.13;12.13;;;;;;;15.42;50.29;100390.20;1832709;77;22711;-76
2021/03/27 09:27:58;;;;;;;21.77;11.65;;;;;;;15.58;50.03;100393.59;1755402;79;21958;-77
2021/03/27 09:31:04;;;;;;;25.52;11.45;;;;;;;15.58;50.03;100393.59;1816007;78;21178;-77
2021/03/27 09:33:39;;;;;;;20.62;12.40;;;;;;;15.52;49.89;100403.27;1812147;77;21040;-77
2021/03/27 09:36:28;;;;;;;21.37;10.68;;;;;;;15.60;49.92;100400.93;1810570;78;21308;-78
2021/03/27 09:39:19;;;;;;;21.17;11.57;;;;;;;15.79;49.88;100404.20;1749309;80;21128;-78
2021/03/27 09:42:09;;;;;;;19.40;10.35;;;;;;;15.92;49.76;100401.52;1769709;80;21170;-78
2021/03/27 09:44:38;;;;;;;;;;;;;;;15.77;49.55;100400.86;1728724;81;21222;-78
2021/03/27 09:47:17;;;;;;;20.60;11.12;;;;;;;15.76;49.63;100405.95;1735277;81;20274;-78
2021/03/27 09:50:25;;;;;;;27.50;19.85;;;;;;;15.68;49.75;100409.66;1762848;80;21241;-77
2021/03/27 09:53:12;;;;;;;47.45;24.32;;;;;;;15.63;49.85;100418.83;1746036;81;21185;-77
2021/03/27 09:55:55;;;;;;;39.75;22.40;;;;;;;15.60;49.85;100418.41;1730794;81;21192;-77
2021/03/27 09:58:33;;;;;;;59.88;30.72;;;;;;;15.60;49.85;100418.41;1734014;81;22248;-76
2021/03/27 10:01:42;;;;;;;29.37;16.62;;;;;;;15.73;49.92;100424.64;1733510;81;21217;-77
2021/03/27 10:04:25;;;;;;;20.60;10.80;;;;;;;15.90;49.95;100422.44;1713756;81;21180;-77
2021/03/27 10:07:09;;;;;;;13.53;9.00;;;;;;;16.10;49.90;100423.80;1739348;81;21176;-77
2021/03/27 10:10:04;;;;;;;17.92;9.85;;;;;;;16.24;49.62;100422.27;1742753;81;21188;-76
2021/03/27 10:13:11;;;;;;;13.43;8.50;;;;;;;16.39;49.45;100425.59;1738888;81;21276;-76
2021/03/27 10:15:47;;;;;;;17.70;9.38;;;;;;;16.31;49.09;100427.65;1691866;81;21573;-77
2021/03/27 10:18:43;;;;;;;21.50;9.73;;;;;;;16.15;49.11;100427.52;1733543;81;21200;-77
2021/03/27 10:21:34;;;;;;;18.45;8.93;;;;;;;15.89;49.05;100431.52;1719927;81;21163;-77
2021/03/27 10:24:22;;;;;;;14.15;8.15;;;;;;;15.48;48.97;100437.80;1728972;81;21575;-80
2021/03/27 10:27:08;;;;;;;15.35;7.87;;;;;;;15.15;48.79;100438.14;1722398;82;21263;-80
2021/03/27 10:29:41;;;;;;;20.35;9.93;;;;;;;14.92;48.97;100447.80;1740922;82;21175;-81
2021/03/27 10:32:35;;;;;;;16.45;8.13;;;;;;;14.74;49.06;100442.09;1743310;82;21591;-81
2021/03/27 10:38:49;;;;;;;14.90;7.37;;;;;;;14.39;49.47;100477.97;1737359;81;21173;-79
2021/03/27 10:41:30;;;;;;;11.50;7.40;;;;;;;13.83;50.70;100517.12;1738294;81;21504;-80
2021/03/27 10:44:34;;;;;;;12.15;7.53;;;;;;;13.13;52.52;100561.81;1738972;81;21182;-79
2021/03/27 10:47:05;;;;;;;15.32;7.40;;;;;;;12.51;54.09;100574.03;1738464;81;21155;-78
2021/03/27 10:49:42;;;;;;;11.60;7.90;;;;;;;11.94;55.59;100578.03;1758278;81;21187;-79
2021/03/27 10:52:34;;;;;;;12.78;7.78;;;;;;;11.56;57.03;100588.17;1734365;81;21155;-79
2021/03/27 10:55:20;;;;;;;13.03;6.75;;;;;;;11.25;58.21;100585.41;1753879;81;21248;-79
2021/03/27 10:58:21;;;;;;;10.15;6.80;;;;;;;10.99;59.93;100586.94;1751140;81;21187;-79
2021/03/27 11:01:27;;;;;;;8.93;6.60;;;;;;;10.82;61.32;100595.45;1724417;81;21196;-79
2021/03/27 11:04:14;;;;;;;10.40;6.22;;;;;;;10.70;62.32;100601.27;1745067;81;21187;-79
2021/03/27 11:06:58;;;;;;;12.25;7.95;;;;;;;10.61;63.22;100608.45;1764082;81;21611;-79
2021/03/27 11:10:02;;;;;;;13.18;8.53;;;;;;;10.61;63.70;100606.27;1734895;81;21230;-79
2021/03/27 11:12:49;;;;;;;10.23;6.87;;;;;;;10.63;64.13;100622.93;1747554;81;21165;-79
2021/03/27 11:15:42;;;;;;;8.43;4.87;;;;;;;10.63;64.66;100644.27;1739253;81;21532;-79
2021/03/27 11:18:39;;;;;;;5.12;3.55;;;;;;;10.64;65.00;100642.78;1746176;81;21149;-80
2021/03/27 11:21:38;;;;;;;6.35;4.75;;;;;;;10.64;65.43;100655.28;1743779;81;21194;-79
2021/03/27 11:24:43;;;;;;;4.17;3.20;;;;;;;10.64;65.92;100659.28;1868072;75;22694;-79
2021/03/27 11:27:29;;;;;;;9.48;5.00;;;;;;;10.49;66.28;100663.91;1824953;78;21175;-79
2021/03/27 11:30:13;;;;;;;8.03;4.87;;;;;;;10.42;66.75;100665.56;1741555;81;21294;-79
2021/03/27 11:33:12;;;;;;;7.30;5.05;;;;;;;10.35;67.10;100660.54;1743108;80;21187;-78
2021/03/27 11:35:46;;;;;;;12.68;8.80;;;;;;;10.25;67.45;100657.18;1688991;80;21223;-79
2021/03/27 11:38:40;;;;;;;11.97;9.88;;;;;;;10.17;67.67;100665.66;1721572;81;21648;-79
2021/03/27 11:41:36;;;;;;;14.30;11.05;;;;;;;10.10;67.95;100674.73;1761174;81;21130;-79
2021/03/27 11:44:21;;;;;;;15.35;8.93;;;;;;;9.99;68.33;100683.03;1729554;80;22024;-78
2021/03/27 11:47:04;;;;;;;8.78;5.97;;;;;;;9.98;68.62;100686.69;1730503;80;21180;-78
2021/03/27 11:49:39;;;;;;;15.83;7.97;;;;;;;10.01;68.87;100687.20;1711816;82;21196;-78
2021/03/27 11:52:25;;;;;;;10.35;7.70;;;;;;;9.96;69.06;100704.15;1730835;82;21143;-78
2021/03/27 11:55:09;;;;;;;7.72;5.22;;;;;;;9.93;69.22;100691.64;1732707;80;21152;-79
2021/03/27 11:57:52;;;;;;;7.60;5.37;;;;;;;9.84;69.33;100708.59;1744726;80;21318;-78
2021/03/27 12:01:06;;;;;;;12.43;8.03;;;;;;;9.78;69.43;100719.88;1773501;80;21227;-78
2021/03/27 12:04:20;;;;;;;12.28;7.20;;;;;;;9.74;69.55;100720.69;1741182;80;21138;-78
2021/03/27 12:07:21;;;;;;;8.45;5.97;;;;;;;9.76;69.60;100716.52;1776131;80;21143;-78
2021/03/27 12:10:20;;;;;;;9.98;6.10;;;;;;;9.74;69.71;100730.50;1775794;80;21199;-78
2021/03/27 12:13:12;;;;;;;6.20;5.60;;;;;;;9.68;69.78;100734.60;1756362;80;22132;-78
2021/03/27 12:15:49;;;;;;;7.25;5.45;;;;;;;9.64;69.85;100736.42;1757689;80;21181;-78
2021/03/27 12:18:46;;;;;;;11.03;8.53;;;;;;;9.59;69.89;100736.05;1720146;82;21704;-78
2021/03/27 12:21:28;;;;;;;13.45;10.75;;;;;;;9.58;69.89;100743.19;1725144;82;21161;-78
2021/03/27 12:24:20;;;;;;;13.28;7.70;;;;;;;9.62;69.90;100758.36;1727625;82;21224;-78
2021/03/27 12:27:14;;;;;;;5.62;3.92;;;;;;;9.62;69.85;100762.35;1715851;83;21292;-78
2021/03/27 12:29:43;;;;;;;7.15;4.20;;;;;;;9.65;69.77;100778.02;1717944;83;21578;-78
2021/03/27 12:32:40;;;;;;;9.33;4.58;;;;;;;9.80;69.65;100789.80;1706818;82;21216;-78
2021/03/27 12:35:21;;;;;;;4.00;2.02;;;;;;;10.03;69.47;100792.27;1719270;82;21179;-77
2021/03/27 12:38:07;;;;;;;2.08;1.60;;;;;;;10.16;68.96;100804.73;1723793;82;21577;-77
2021/03/27 12:40:44;;;;;;;3.33;1.52;;;;;;;10.21;68.53;100804.24;1721020;82;21229;-77
2021/03/27 12:43:18;;;;;;;2.12;1.37;;;;;;;10.02;67.96;100813.27;1720733;83;21156;-77
2021/03/27 12:46:09;;;;;;;1.52;1.12;;;;;;;9.79;67.54;100828.06;1720885;83;21637;-77
2021/03/27 12:49:13;;;;;;;2.52;1.40;;;;;;;9.61;67.19;100830.74;1686072;83;21182;-78
2021/03/27 12:52:04;;;;;;;3.02;1.98;;;;;;;9.47;66.98;100845.44;1720845;83;21156;-78
2021/03/27 12:54:43;;;;;;;6.65;3.62;;;;;;;9.39;66.78;100834.70;1684307;82;22364;-78
2021/03/27 12:58:04;;;;;;;11.93;5.80;;;;;;;9.41;66.63;100838.06;1754406;81;21517;-78
2021/03/27 13:00:53;;;;;;;46.33;20.45;;;;;;;9.40;66.50;100839.04;1709257;83;21194;-78
2021/03/27 13:03:58;;;;;;;12.30;6.92;;;;;;;9.51;66.44;100836.16;1722315;82;21675;-78
2021/03/27 13:07:07;;;;;;;57.78;22.37;;;;;;;9.65;66.29;100828.61;1752832;81;21187;-78